Time;durP1;ratioP1;P1;durP2;ratioP2;P2;SDS_P1;SDS_P2;PMS_P1;PMS_P2;Temp;Humidity;BMP_temperature;BMP_pressure;BME280_temperature;BME280_humidity;BME280_pressure;Samples;Min_cycle;Max_cycle;Signal;HPM_P1;HPM_P2
2022/05/20 00:00:20;;;;;;;6.10;3.38;;;;;;;;;;2023410;29;20040;-64
2022/05/20 00:01:21;;;;;;;7.85;3.08;;;;;;;;;;2023920;29;20071;-64
2022/05/20 00:02:21;;;;;;;10.52;3.38;;;;;;;;;;2031772;29;20546;-64
2022/05/20 00:03:22;;;;;;;8.88;3.20;;;;;;;;;;2016709;29;20040;-65
2022/05/20 00:04:23;;;;;;;6.22;3.17;;;;;;;;;;2023602;29;20100;-66
2022/05/20 00:05:24;;;;;;;9.55;3.47;;;;;;;;;;2038684;29;20111;-64
2022/05/20 00:06:25;;;;;;;5.45;3.10;;;;;;;;;;2017305;29;20049;-65
2022/05/20 00:07:26;;;;;;;6.40;3.30;;;;;;;;;;2017995;29;20040;-65
2022/05/20 00:08:27;;;;;;;11.43;3.13;;;;;;;;;;2025486;29;20095;-64
2022/05/20 00:09:28;;;;;;;6.82;3.20;;;;;;;;;;2025815;29;20033;-65
2022/05/20 00:10:29;;;;;;;9.00;3.35;;;;;;;;;;2023287;29;20124;-65
2022/05/20 00:11:29;;;;;;;6.05;3.45;;;;;;;;;;2018431;29;20041;-65
2022/05/20 00:12:30;;;;;;;6.57;3.50;;;;;;;;;;2026018;29;20539;-65
2022/05/20 00:13:31;;;;;;;11.38;3.42;;;;;;;;;;2018459;29;20657;-64
2022/05/20 00:14:32;;;;;;;4.13;3.25;;;;;;;;;;2010497;29;20056;-65
2022/05/20 00:15:33;;;;;;;9.63;3.53;;;;;;;;;;2017909;29;20052;-64
2022/05/20 00:16:35;;;;;;;6.70;3.35;;;;;;;;;;2018273;29;20057;-65
2022/05/20 00:17:35;;;;;;;9.32;3.20;;;;;;;;;;2034028;29;20045;-67
2022/05/20 00:18:37;;;;;;;12.48;3.85;;;;;;;;;;2025930;29;20053;-64
2022/05/20 00:19:38;;;;;;;7.45;3.38;;;;;;;;;;2026583;29;20049;-65
2022/05/20 00:20:39;;;;;;;5.88;3.25;;;;;;;;;;2032952;29;20067;-64
2022/05/20 00:21:40;;;;;;;7.78;3.47;;;;;;;;;;2017795;29;20137;-65
2022/05/20 00:22:41;;;;;;;9.52;3.38;;;;;;;;;;2025269;29;20079;-64
2022/05/20 00:23:41;;;;;;;5.93;3.35;;;;;;;;;;2025534;29;20107;-64
2022/05/20 00:26:03;;;;;;;6.03;2.90;;;;;;;;;;2013240;29;20049;-64
2022/05/20 00:27:04;;;;;;;9.23;3.13;;;;;;;;;;2027617;29;20044;-67
2022/05/20 00:28:05;;;;;;;7.32;3.15;;;;;;;;;;2033298;29;20060;-65
2022/05/20 00:29:06;;;;;;;7.35;3.00;;;;;;;;;;2018312;29;20045;-64
2022/05/20 00:30:07;;;;;;;5.32;2.92;;;;;;;;;;2032856;29;20055;-64
2022/05/20 00:31:08;;;;;;;4.88;3.30;;;;;;;;;;2032271;29;20047;-64
2022/05/20 00:32:09;;;;;;;6.85;3.05;;;;;;;;;;2025512;29;20044;-65
2022/05/20 00:33:10;;;;;;;6.70;3.15;;;;;;;;;;2025549;29;20048;-66
2022/05/20 00:34:11;;;;;;;5.05;2.85;;;;;;;;;;2033644;29;20099;-65
2022/05/20 00:35:13;;;;;;;5.18;2.70;;;;;;;;;;2025230;29;20579;-67
2022/05/20 00:36:14;;;;;;;7.90;3.03;;;;;;;;;;2025497;29;20340;-64
2022/05/20 00:37:15;;;;;;;8.52;2.97;;;;;;;;;;2025347;29;20044;-65
2022/05/20 00:38:16;;;;;;;10.77;3.45;;;;;;;;;;2026123;29;20056;-63
2022/05/20 00:39:18;;;;;;;7.28;3.10;;;;;;;;;;2025554;29;20538;-65
2022/05/20 00:40:20;;;;;;;6.10;3.20;;;;;;;;;;2033063;29;20059;-66
2022/05/20 00:41:20;;;;;;;12.80;3.22;;;;;;;;;;2025156;29;20075;-66
2022/05/20 00:42:21;;;;;;;7.18;2.83;;;;;;;;;;2025619;29;20044;-65
2022/05/20 00:43:31;;;;;;;8.43;3.40;;;;;;;;;;2025617;29;20048;-64
2022/05/20 00:44:32;;;;;;;4.93;2.92;;;;;;;;;;2025298;29;20071;-65
2022/05/20 00:45:33;;;;;;;7.90;2.95;;;;;;;;;;2025205;29;20088;-65
2022/05/20 00:46:33;;;;;;;10.82;3.38;;;;;;;;;;2018124;29;20159;-64
2022/05/20 00:47:34;;;;;;;8.65;3.20;;;;;;;;;;2025672;29;20655;-65
2022/05/20 00:48:35;;;;;;;10.05;3.53;;;;;;;;;;2033850;29;20080;-65
2022/05/20 00:49:36;;;;;;;6.00;3.03;;;;;;;;;;2025139;29;20036;-65
2022/05/20 00:50:38;;;;;;;6.70;3.00;;;;;;;;;;2018201;29;20069;-65
2022/05/20 00:51:40;;;;;;;6.47;3.17;;;;;;;;;;2018344;29;20041;-65
2022/05/20 00:52:42;;;;;;;11.85;3.47;;;;;;;;;;2025962;29;20100;-65
2022/05/20 00:53:52;;;;;;;8.45;3.17;;;;;;;;;;2032793;29;20051;-64
2022/05/20 00:54:54;;;;;;;4.60;2.92;;;;;;;;;;2033110;29;20051;-65
2022/05/20 00:55:55;;;;;;;8.20;3.08;;;;;;;;;;2010015;29;20038;-64
2022/05/20 00:56:57;;;;;;;9.20;3.67;;;;;;;;;;2010550;29;20045;-64
2022/05/20 00:58:00;;;;;;;6.43;2.85;;;;;;;;;;2025412;29;20049;-66
2022/05/20 00:59:01;;;;;;;7.97;3.28;;;;;;;;;;2017562;29;20052;-65
2022/05/20 01:00:04;;;;;;;6.65;2.97;;;;;;;;;;2017441;29;20468;-65
2022/05/20 01:01:05;;;;;;;7.22;3.35;;;;;;;;;;2032353;29;20052;-67
2022/05/20 01:02:07;;;;;;;7.00;3.15;;;;;;;;;;2033146;29;20104;-65
2022/05/20 01:03:08;;;;;;;5.30;3.13;;;;;;;;;;2025933;29;20048;-65
2022/05/20 01:04:09;;;;;;;13.40;3.58;;;;;;;;;;2032855;29;20040;-65
2022/05/20 01:05:12;;;;;;;5.78;2.88;;;;;;;;;;2032644;29;20127;-66
2022/05/20 01:06:13;;;;;;;9.63;3.42;;;;;;;;;;2009916;29;20135;-65
2022/05/20 01:07:13;;;;;;;6.80;2.88;;;;;;;;;;2003330;29;20128;-64
2022/05/20 01:08:15;;;;;;;8.18;2.90;;;;;;;;;;2033143;29;20040;-66
2022/05/20 01:09:16;;;;;;;8.40;3.50;;;;;;;;;;2040804;29;20047;-66
2022/05/20 01:10:17;;;;;;;7.57;3.22;;;;;;;;;;2025631;29;20036;-65
2022/05/20 01:11:18;;;;;;;4.97;2.67;;;;;;;;;;2017794;29;20045;-67
2022/05/20 01:12:18;;;;;;;6.00;2.85;;;;;;;;;;2025048;29;20408;-65
2022/05/20 01:13:19;;;;;;;4.50;3.10;;;;;;;;;;2017823;29;20045;-64
2022/05/20 01:14:20;;;;;;;6.82;2.95;;;;;;;;;;2009967;29;20045;-65
2022/05/20 01:15:21;;;;;;;5.07;2.95;;;;;;;;;;2017490;29;20037;-65
2022/05/20 01:16:22;;;;;;;4.25;3.10;;;;;;;;;;2017301;29;20516;-66
2022/05/20 01:17:23;;;;;;;5.32;2.90;;;;;;;;;;2009572;29;20037;-64
2022/05/20 01:18:24;;;;;;;6.20;3.05;;;;;;;;;;2018124;29;20132;-65
2022/05/20 01:19:28;;;;;;;6.88;3.13;;;;;;;;;;2025101;29;20084;-64
2022/05/20 01:20:30;;;;;;;6.65;3.20;;;;;;;;;;2025478;29;20495;-64
2022/05/20 01:21:31;;;;;;;4.88;3.22;;;;;;;;;;2032922;29;20043;-65
2022/05/20 01:22:36;;;;;;;6.68;3.08;;;;;;;;;;2017669;29;20539;-65
2022/05/20 01:23:37;;;;;;;4.90;2.90;;;;;;;;;;2018135;29;20045;-64
2022/05/20 01:24:38;;;;;;;13.30;3.42;;;;;;;;;;2025159;29;20037;-64
2022/05/20 01:25:40;;;;;;;5.38;2.95;;;;;;;;;;2032702;29;20127;-65
2022/05/20 01:26:41;;;;;;;5.85;2.90;;;;;;;;;;2032644;29;20052;-66
2022/05/20 01:27:42;;;;;;;6.47;2.92;;;;;;;;;;2025114;29;20095;-65
2022/05/20 01:28:43;;;;;;;5.57;2.67;;;;;;;;;;2033138;29;20080;-64
2022/05/20 01:29:44;;;;;;;5.13;2.72;;;;;;;;;;2025125;29;20044;-65
2022/05/20 01:30:46;;;;;;;7.22;3.05;;;;;;;;;;2018159;29;20186;-66
2022/05/20 01:31:47;;;;;;;5.30;2.85;;;;;;;;;;2024660;29;20052;-66
2022/05/20 01:32:47;;;;;;;4.95;2.63;;;;;;;;;;2026068;29;20466;-65
2022/05/20 01:33:50;;;;;;;4.30;2.83;;;;;;;;;;2040313;29;20075;-65
2022/05/20 01:34:50;;;;;;;5.38;3.03;;;;;;;;;;2033174;29;20412;-63
2022/05/20 01:35:51;;;;;;;6.50;3.20;;;;;;;;;;2024463;29;20122;-65
2022/05/20 01:36:52;;;;;;;3.60;2.83;;;;;;;;;;2017071;29;20408;-65
2022/05/20 01:37:53;;;;;;;8.45;3.40;;;;;;;;;;2025360;29;20053;-65
2022/05/20 01:38:53;;;;;;;5.72;3.38;;;;;;;;;;2026607;29;20546;-64
2022/05/20 01:39:54;;;;;;;4.60;2.85;;;;;;;;;;2025038;29;20191;-64
2022/05/20 01:40:57;;;;;;;7.40;2.90;;;;;;;;;;2017966;29;20052;-65
2022/05/20 01:42:03;;;;;;;5.22;2.95;;;;;;;;;;2025411;29;20048;-64
2022/05/20 01:43:05;;;;;;;4.00;2.83;;;;;;;;;;2017780;29;20048;-64
2022/05/20 01:44:08;;;;;;;6.47;3.22;;;;;;;;;;2017130;29;20056;-65
2022/05/20 01:45:12;;;;;;;5.70;3.10;;;;;;;;;;2032339;29;20032;-64
2022/05/20 01:46:33;;;;;;;5.18;3.00;;;;;;;;;;2024724;29;20527;-64
2022/05/20 01:47:39;;;;;;;8.23;3.25;;;;;;;;;;2019949;29;20041;-64
2022/05/20 01:48:43;;;;;;;6.65;3.72;;;;;;;;;;2025124;29;20053;-64
2022/05/20 01:50:03;;;;;;;5.88;3.40;;;;;;;;;;2025194;29;20041;-65
2022/05/20 01:51:04;;;;;;;4.45;3.00;;;;;;;;;;2022620;29;20044;-64
2022/05/20 01:52:08;;;;;;;8.07;3.67;;;;;;;;;;2025026;29;20032;-65
2022/05/20 01:53:10;;;;;;;6.78;3.40;;;;;;;;;;2025387;29;20032;-67
2022/05/20 01:54:12;;;;;;;6.68;3.33;;;;;;;;;;2024653;29;20032;-63
2022/05/20 01:55:33;;;;;;;7.82;3.47;;;;;;;;;;2024965;29;20059;-65
2022/05/20 01:56:34;;;;;;;5.45;3.38;;;;;;;;;;2019321;29;20037;-66
2022/05/20 01:57:38;;;;;;;8.07;3.42;;;;;;;;;;2025091;29;20044;-64
2022/05/20 01:58:41;;;;;;;5.88;3.45;;;;;;;;;;2032372;29;20051;-64
2022/05/20 01:59:43;;;;;;;7.00;3.05;;;;;;;;;;2026270;29;20055;-66
2022/05/20 02:00:44;;;;;;;6.75;3.13;;;;;;;;;;2024732;29;20048;-65
2022/05/20 02:01:47;;;;;;;6.35;3.15;;;;;;;;;;2024872;29;20050;-66
2022/05/20 02:02:50;;;;;;;5.32;3.08;;;;;;;;;;2016744;29;20056;-64
2022/05/20 02:03:53;;;;;;;6.07;3.75;;;;;;;;;;2016957;29;20056;-64
2022/05/20 02:04:57;;;;;;;6.55;2.97;;;;;;;;;;2024855;29;20048;-64
2022/05/20 02:06:00;;;;;;;6.35;3.45;;;;;;;;;;2016716;29;20049;-64
2022/05/20 02:07:05;;;;;;;5.47;3.25;;;;;;;;;;2009308;29;20519;-65
2022/05/20 02:08:08;;;;;;;9.00;4.18;;;;;;;;;;2017759;29;20052;-66
2022/05/20 02:09:12;;;;;;;5.70;3.55;;;;;;;;;;2024042;29;20044;-65
2022/05/20 02:10:16;;;;;;;9.45;4.07;;;;;;;;;;2025096;29;20043;-65
2022/05/20 02:11:20;;;;;;;5.57;3.63;;;;;;;;;;2032319;29;20039;-65
2022/05/20 02:12:22;;;;;;;7.20;3.88;;;;;;;;;;2023341;29;20044;-65
2022/05/20 02:13:23;;;;;;;5.65;3.90;;;;;;;;;;2016938;29;20041;-65
2022/05/20 02:14:44;;;;;;;6.10;3.60;;;;;;;;;;2024974;29;20049;-65
2022/05/20 02:16:02;;;;;;;9.32;3.85;;;;;;;;;;2024934;29;20542;-65
2022/05/20 02:17:10;;;;;;;5.90;3.90;;;;;;;;;;2024214;29;20101;-64
2022/05/20 02:18:12;;;;;;;9.27;4.05;;;;;;;;;;2025257;29;20041;-65
2022/05/20 02:19:15;;;;;;;9.73;4.25;;;;;;;;;;2032250;29;20051;-65
2022/05/20 02:20:21;;;;;;;7.13;3.58;;;;;;;;;;2032665;29;20044;-64
2022/05/20 02:21:26;;;;;;;7.93;3.58;;;;;;;;;;2024738;29;20048;-65
2022/05/20 02:22:28;;;;;;;7.07;4.05;;;;;;;;;;2032347;29;20040;-65
2022/05/20 02:23:42;;;;;;;5.80;3.30;;;;;;;;;;2031953;29;20454;-64
2022/05/20 02:24:43;;;;;;;6.65;3.85;;;;;;;;;;2032650;29;20070;-64
2022/05/20 02:25:46;;;;;;;8.32;3.70;;;;;;;;;;2032138;29;20059;-64
2022/05/20 02:26:49;;;;;;;4.78;3.58;;;;;;;;;;2025012;29;20402;-67
2022/05/20 02:27:52;;;;;;;5.90;3.95;;;;;;;;;;2016736;29;20071;-65
2022/05/20 02:28:58;;;;;;;5.95;3.47;;;;;;;;;;2009103;29;20041;-64
2022/05/20 02:30:07;;;;;;;6.28;4.10;;;;;;;;;;2017942;29;20052;-64
2022/05/20 02:31:09;;;;;;;8.38;4.30;;;;;;;;;;2016852;29;20029;-65
2022/05/20 02:32:22;;;;;;;7.82;4.00;;;;;;;;;;2024322;29;20040;-64
2022/05/20 02:33:23;;;;;;;8.98;3.95;;;;;;;;;;2015808;29;20045;-64
2022/05/20 02:34:24;;;;;;;8.40;4.70;;;;;;;;;;2009683;29;20544;-65
2022/05/20 02:35:25;;;;;;;7.15;3.88;;;;;;;;;;2009530;29;20041;-64
2022/05/20 02:36:29;;;;;;;9.73;4.78;;;;;;;;;;2009210;29;20054;-65
2022/05/20 02:37:31;;;;;;;8.63;4.50;;;;;;;;;;2017039;29;20092;-66
2022/05/20 02:38:32;;;;;;;7.20;4.03;;;;;;;;;;2017430;29;20060;-65
2022/05/20 02:39:33;;;;;;;7.60;4.43;;;;;;;;;;2025539;29;20040;-64
2022/05/20 02:40:34;;;;;;;7.00;4.10;;;;;;;;;;2025126;29;20075;-64
2022/05/20 02:41:35;;;;;;;10.43;4.53;;;;;;;;;;2019944;29;20483;-64
2022/05/20 02:42:35;;;;;;;7.85;4.28;;;;;;;;;;2008911;29;20057;-64
2022/05/20 02:43:36;;;;;;;5.47;3.85;;;;;;;;;;2024521;29;20049;-66
2022/05/20 02:44:37;;;;;;;7.65;4.38;;;;;;;;;;2032324;29;20055;-64
2022/05/20 02:45:38;;;;;;;7.18;4.10;;;;;;;;;;2031962;29;20087;-65
2022/05/20 02:46:39;;;;;;;7.82;4.03;;;;;;;;;;2016444;29;20049;-64
2022/05/20 02:47:40;;;;;;;6.60;4.55;;;;;;;;;;2009006;29;20053;-65
2022/05/20 02:48:41;;;;;;;6.93;4.47;;;;;;;;;;2024051;29;20049;-64
2022/05/20 02:49:42;;;;;;;9.32;4.53;;;;;;;;;;2032172;29;20387;-63
2022/05/20 02:50:42;;;;;;;6.53;4.57;;;;;;;;;;2024633;29;20052;-65
2022/05/20 02:51:43;;;;;;;7.53;4.20;;;;;;;;;;2024450;29;20045;-64
2022/05/20 02:52:44;;;;;;;7.18;4.85;;;;;;;;;;2024373;29;20135;-65
2022/05/20 02:53:47;;;;;;;6.32;3.90;;;;;;;;;;2016377;29;20069;-65
2022/05/20 02:54:47;;;;;;;7.30;4.90;;;;;;;;;;2017235;29;20503;-64
2022/05/20 02:55:48;;;;;;;8.93;4.63;;;;;;;;;;2024431;29;20124;-64
2022/05/20 02:56:49;;;;;;;10.43;4.30;;;;;;;;;;2031527;29;20094;-64
2022/05/20 02:57:50;;;;;;;11.40;4.50;;;;;;;;;;2039979;29;20048;-65
2022/05/20 03:05:12;;;;;;;7.35;4.68;;;;;;;;;;2037290;29;20040;-64
2022/05/20 03:06:13;;;;;;;7.45;4.53;;;;;;;;;;2032577;29;20043;-65
2022/05/20 03:07:15;;;;;;;8.75;4.50;;;;;;;;;;2024119;29;20048;-66
2022/05/20 03:08:15;;;;;;;7.90;4.53;;;;;;;;;;2024559;29;20495;-64
2022/05/20 03:09:17;;;;;;;7.72;5.05;;;;;;;;;;2024443;29;20081;-64
2022/05/20 03:10:18;;;;;;;8.35;4.63;;;;;;;;;;2024650;29;20056;-65
2022/05/20 03:11:19;;;;;;;8.30;4.72;;;;;;;;;;2024331;29;20177;-67
2022/05/20 03:12:20;;;;;;;7.88;4.68;;;;;;;;;;2024591;29;20072;-64
2022/05/20 03:13:20;;;;;;;8.15;4.80;;;;;;;;;;2024002;29;20128;-66
2022/05/20 03:14:21;;;;;;;7.07;4.78;;;;;;;;;;2009297;29;20038;-66
2022/05/20 03:15:22;;;;;;;7.18;4.68;;;;;;;;;;2016533;29;20427;-65
2022/05/20 03:16:23;;;;;;;7.63;4.68;;;;;;;;;;2024066;29;20095;-64
2022/05/20 03:17:24;;;;;;;8.15;4.78;;;;;;;;;;2031857;29;20044;-65
2022/05/20 03:18:24;;;;;;;9.70;5.20;;;;;;;;;;2031587;29;20490;-64
2022/05/20 03:19:30;;;;;;;6.82;5.00;;;;;;;;;;2024633;29;20060;-64
2022/05/20 03:20:31;;;;;;;8.30;4.88;;;;;;;;;;2024038;29;20051;-65
2022/05/20 03:21:32;;;;;;;9.05;4.90;;;;;;;;;;2024296;29;20104;-65
2022/05/20 03:22:33;;;;;;;10.27;4.95;;;;;;;;;;2024846;29;20053;-64
2022/05/20 03:23:34;;;;;;;6.15;4.90;;;;;;;;;;2031798;29;20072;-66
2022/05/20 03:24:34;;;;;;;7.93;4.53;;;;;;;;;;2039820;29;20052;-64
2022/05/20 03:25:36;;;;;;;9.07;4.40;;;;;;;;;;2024197;29;20080;-64
2022/05/20 03:26:37;;;;;;;9.48;4.95;;;;;;;;;;2031744;29;20438;-65
2022/05/20 03:27:38;;;;;;;11.45;4.93;;;;;;;;;;2039468;29;20051;-66
2022/05/20 03:28:39;;;;;;;7.55;4.68;;;;;;;;;;2024134;29;20419;-65
2022/05/20 03:29:40;;;;;;;7.13;4.65;;;;;;;;;;2024667;29;20546;-66
2022/05/20 03:30:41;;;;;;;8.30;4.88;;;;;;;;;;2031454;29;20091;-64
2022/05/20 03:31:41;;;;;;;9.02;4.63;;;;;;;;;;2032580;29;20047;-65
2022/05/20 03:32:42;;;;;;;8.65;5.13;;;;;;;;;;2016618;29;20045;-65
2022/05/20 03:33:43;;;;;;;8.77;4.72;;;;;;;;;;2024186;29;20079;-65
2022/05/20 03:34:44;;;;;;;6.97;4.72;;;;;;;;;;2024015;29;20091;-64
2022/05/20 03:35:45;;;;;;;6.53;4.75;;;;;;;;;;2023941;29;20056;-65
2022/05/20 03:36:46;;;;;;;8.70;5.15;;;;;;;;;;2023247;29;20704;-65
2022/05/20 03:37:47;;;;;;;6.90;5.15;;;;;;;;;;2024611;29;20036;-64
2022/05/20 03:38:48;;;;;;;7.60;4.78;;;;;;;;;;2024578;29;20518;-65
2022/05/20 03:39:49;;;;;;;8.50;5.07;;;;;;;;;;2024562;29;20467;-65
2022/05/20 03:40:49;;;;;;;8.43;5.13;;;;;;;;;;2032061;29;20040;-63
2022/05/20 03:41:50;;;;;;;7.95;5.32;;;;;;;;;;2024636;29;20045;-64
2022/05/20 03:42:51;;;;;;;9.23;5.03;;;;;;;;;;2039708;29;20096;-65
2022/05/20 03:43:52;;;;;;;9.80;5.32;;;;;;;;;;2039337;29;20048;-65
2022/05/20 03:44:53;;;;;;;10.02;5.28;;;;;;;;;;2023791;29;20060;-64
2022/05/20 03:45:54;;;;;;;8.65;5.25;;;;;;;;;;2024592;29;20071;-64
2022/05/20 03:46:55;;;;;;;7.47;5.00;;;;;;;;;;2031820;29;20048;-65
2022/05/20 03:47:55;;;;;;;8.25;5.03;;;;;;;;;;2016430;29;20444;-64
2022/05/20 03:48:57;;;;;;;8.88;5.07;;;;;;;;;;2016161;29;20065;-64
2022/05/20 03:50:00;;;;;;;11.18;5.55;;;;;;;;;;2032587;29;20055;-64
2022/05/20 03:51:09;;;;;;;9.90;5.43;;;;;;;;;;2031470;29;20040;-65
2022/05/20 03:52:10;;;;;;;6.32;5.00;;;;;;;;;;2024547;29;20419;-65
2022/05/20 03:53:11;;;;;;;8.10;5.00;;;;;;;;;;2031793;29;20047;-65
2022/05/20 03:54:12;;;;;;;11.98;6.00;;;;;;;;;;2039566;29;20569;-65
2022/05/20 03:55:13;;;;;;;6.25;4.57;;;;;;;;;;2027624;29;20048;-66
2022/05/20 03:56:14;;;;;;;6.80;4.97;;;;;;;;;;2016302;29;20048;-64
2022/05/20 03:57:14;;;;;;;10.23;5.15;;;;;;;;;;2009584;29;20053;-65
2022/05/20 03:58:15;;;;;;;9.65;5.07;;;;;;;;;;2024284;29;20487;-65
2022/05/20 03:59:16;;;;;;;6.68;4.85;;;;;;;;;;2031680;29;20471;-65
2022/05/20 04:00:17;;;;;;;8.57;5.50;;;;;;;;;;2024161;29;20045;-65
2022/05/20 04:02:39;;;;;;;7.53;4.97;;;;;;;;;;2034271;29;20052;-64
2022/05/20 04:03:41;;;;;;;8.77;5.47;;;;;;;;;;2034495;29;20518;-66
2022/05/20 04:04:43;;;;;;;8.02;5.18;;;;;;;;;;2016910;29;20041;-65
2022/05/20 04:05:44;;;;;;;8.50;4.65;;;;;;;;;;2023802;29;20049;-65
2022/05/20 04:06:45;;;;;;;8.32;4.80;;;;;;;;;;2032051;29;20048;-64
2022/05/20 04:07:46;;;;;;;9.70;4.90;;;;;;;;;;2024452;29;20135;-67
2022/05/20 04:08:46;;;;;;;8.10;5.20;;;;;;;;;;2016493;29;20052;-64
2022/05/20 04:09:48;;;;;;;7.95;4.80;;;;;;;;;;2023984;29;20354;-64
2022/05/20 04:10:49;;;;;;;5.80;4.50;;;;;;;;;;2024567;29;20036;-64
2022/05/20 04:11:52;;;;;;;6.82;5.25;;;;;;;;;;2024546;29;20048;-66
2022/05/20 04:12:53;;;;;;;6.30;5.00;;;;;;;;;;2024615;29;20057;-65
2022/05/20 04:13:54;;;;;;;6.78;4.88;;;;;;;;;;2024289;29;20044;-65
2022/05/20 04:14:55;;;;;;;9.05;4.80;;;;;;;;;;2024413;29;20512;-65
2022/05/20 04:15:56;;;;;;;7.80;5.20;;;;;;;;;;2024121;29;20060;-65
2022/05/20 04:16:57;;;;;;;7.60;4.80;;;;;;;;;;2024119;29;20107;-65
2022/05/20 04:17:58;;;;;;;6.60;4.60;;;;;;;;;;2024471;29;20044;-64
2022/05/20 04:18:58;;;;;;;9.02;5.03;;;;;;;;;;2024547;29;20563;-65
2022/05/20 04:19:59;;;;;;;7.10;4.82;;;;;;;;;;2016996;29;20389;-64
2022/05/20 04:21:00;;;;;;;7.10;4.82;;;;;;;;;;2016549;29;20041;-66
2022/05/20 04:22:03;;;;;;;10.80;5.75;;;;;;;;;;2008534;29;20050;-64
2022/05/20 04:23:04;;;;;;;7.80;4.85;;;;;;;;;;2016873;29;20048;-65
2022/05/20 04:24:05;;;;;;;8.25;4.55;;;;;;;;;;2016768;29;20189;-65
2022/05/20 04:25:06;;;;;;;10.70;5.35;;;;;;;;;;2016971;29;20037;-64
2022/05/20 04:26:07;;;;;;;7.63;4.63;;;;;;;;;;2024177;29;20503;-66
2022/05/20 04:27:08;;;;;;;7.00;5.13;;;;;;;;;;2023976;29;20044;-65
2022/05/20 04:28:08;;;;;;;8.48;5.05;;;;;;;;;;2024399;29;20117;-66
2022/05/20 04:29:09;;;;;;;7.97;4.75;;;;;;;;;;2031333;29;20052;-64
2022/05/20 04:30:10;;;;;;;9.85;5.25;;;;;;;;;;2039796;29;20083;-64
2022/05/20 04:31:11;;;;;;;10.68;6.50;;;;;;;;;;2023719;29;20048;-65
2022/05/20 04:32:12;;;;;;;9.02;5.68;;;;;;;;;;2024369;29;20076;-64
2022/05/20 04:33:13;;;;;;;9.60;5.32;;;;;;;;;;2023733;29;20109;-66
2022/05/20 04:34:13;;;;;;;8.23;5.35;;;;;;;;;;2031398;29;20044;-64
2022/05/20 04:35:14;;;;;;;6.32;4.82;;;;;;;;;;2024292;29;20635;-64
2022/05/20 04:36:15;;;;;;;7.93;4.63;;;;;;;;;;2023422;29;20179;-64
2022/05/20 04:37:16;;;;;;;9.32;5.28;;;;;;;;;;2024380;29;20084;-64
2022/05/20 04:38:17;;;;;;;8.15;4.97;;;;;;;;;;2032426;29;20032;-65
2022/05/20 04:39:19;;;;;;;8.32;5.65;;;;;;;;;;2031054;29;20518;-64
2022/05/20 04:40:20;;;;;;;7.90;4.80;;;;;;;;;;2024712;29;20499;-64
2022/05/20 04:48:01;;;;;;;10.77;5.65;;;;;;;;;;2024030;29;20052;-64
2022/05/20 04:49:05;;;;;;;8.27;5.03;;;;;;;;;;2021207;29;20048;-65
2022/05/20 04:50:06;;;;;;;8.85;5.25;;;;;;;;;;2016866;29;20049;-65
2022/05/20 04:51:07;;;;;;;9.82;5.35;;;;;;;;;;2016867;29;20523;-68
2022/05/20 04:52:08;;;;;;;9.75;5.50;;;;;;;;;;2017767;29;20045;-65
2022/05/20 04:54:49;;;;;;;8.68;5.90;;;;;;;;;;2018185;29;20538;-63
2022/05/20 04:55:49;;;;;;;11.88;6.10;;;;;;;;;;2035811;29;20047;-64
2022/05/20 04:56:50;;;;;;;7.50;5.65;;;;;;;;;;2040752;29;20503;-64
2022/05/20 04:57:52;;;;;;;10.38;5.82;;;;;;;;;;2040828;29;20044;-65
2022/05/20 04:58:53;;;;;;;9.93;5.78;;;;;;;;;;2040966;29;20459;-65
2022/05/20 04:59:56;;;;;;;7.68;5.68;;;;;;;;;;2025587;29;20053;-64
2022/05/20 05:00:56;;;;;;;10.38;5.90;;;;;;;;;;2025214;29;20044;-64
2022/05/20 05:01:57;;;;;;;10.70;5.80;;;;;;;;;;2033277;29;20048;-64
2022/05/20 05:02:58;;;;;;;8.43;5.32;;;;;;;;;;2033351;29;20123;-66
2022/05/20 05:03:59;;;;;;;9.80;5.28;;;;;;;;;;2033217;29;20056;-65
2022/05/20 05:05:00;;;;;;;12.50;5.25;;;;;;;;;;2033162;29;20040;-65
2022/05/20 05:06:01;;;;;;;9.43;5.20;;;;;;;;;;2040346;29;20036;-66
2022/05/20 05:07:01;;;;;;;6.13;5.00;;;;;;;;;;2040576;29;20406;-64
2022/05/20 05:08:02;;;;;;;8.10;5.47;;;;;;;;;;2040635;29;20050;-67
2022/05/20 05:09:03;;;;;;;8.85;4.93;;;;;;;;;;2025355;29;20136;-64
2022/05/20 05:10:04;;;;;;;10.88;6.10;;;;;;;;;;2025390;29;20036;-64
2022/05/20 05:11:05;;;;;;;6.97;5.55;;;;;;;;;;2019472;29;20044;-65
2022/05/20 05:12:06;;;;;;;8.45;5.38;;;;;;;;;;2025176;29;20445;-64
2022/05/20 05:13:08;;;;;;;9.77;5.18;;;;;;;;;;2033175;29;20474;-65
2022/05/20 05:14:09;;;;;;;10.38;5.78;;;;;;;;;;2025168;29;20048;-67
2022/05/20 05:15:11;;;;;;;9.98;5.95;;;;;;;;;;2025291;29;20041;-65
2022/05/20 05:16:12;;;;;;;9.57;5.13;;;;;;;;;;2026312;29;20527;-64
2022/05/20 05:17:14;;;;;;;11.27;5.68;;;;;;;;;;2026006;29;20036;-65
2022/05/20 05:19:15;;;;;;;8.05;5.72;;;;;;;;;;2032715;29;20052;-64
2022/05/20 05:20:20;;;;;;;8.73;5.47;;;;;;;;;;2032843;29;20610;-64
2022/05/20 05:21:21;;;;;;;10.40;6.25;;;;;;;;;;2026340;29;20059;-67
2022/05/20 05:22:22;;;;;;;10.18;6.40;;;;;;;;;;2032940;29;20052;-65
2022/05/20 05:23:22;;;;;;;11.35;6.43;;;;;;;;;;2025092;29;20075;-64
2022/05/20 05:24:23;;;;;;;7.75;5.38;;;;;;;;;;2025731;29;20044;-64
2022/05/20 05:25:25;;;;;;;8.95;5.38;;;;;;;;;;2032173;29;20067;-64
2022/05/20 05:26:27;;;;;;;9.48;5.43;;;;;;;;;;2025296;29;20044;-64
2022/05/20 05:27:27;;;;;;;8.70;5.50;;;;;;;;;;2024639;29;20056;-65
2022/05/20 05:28:30;;;;;;;9.13;5.60;;;;;;;;;;2032842;29;20052;-64
2022/05/20 05:29:31;;;;;;;10.60;5.53;;;;;;;;;;2026069;29;20110;-64
2022/05/20 05:30:31;;;;;;;10.50;5.65;;;;;;;;;;2024699;29;20183;-65
2022/05/20 05:31:33;;;;;;;12.07;5.40;;;;;;;;;;2009898;29;20045;-66
2022/05/20 05:32:34;;;;;;;9.95;5.72;;;;;;;;;;2018000;29;20049;-64
2022/05/20 05:33:35;;;;;;;8.70;5.20;;;;;;;;;;2023099;29;20048;-65
2022/05/20 05:34:36;;;;;;;9.98;5.53;;;;;;;;;;2025090;29;20152;-65
2022/05/20 05:35:37;;;;;;;8.82;5.60;;;;;;;;;;2039867;29;20044;-68
2022/05/20 05:36:37;;;;;;;8.73;5.15;;;;;;;;;;2036487;29;20040;-66
2022/05/20 05:37:38;;;;;;;7.72;5.10;;;;;;;;;;2022074;29;20092;-65
2022/05/20 05:38:42;;;;;;;10.82;5.35;;;;;;;;;;2017657;29;20048;-65
2022/05/20 05:39:43;;;;;;;9.68;5.40;;;;;;;;;;2009839;29;20056;-64
2022/05/20 05:40:44;;;;;;;8.43;5.07;;;;;;;;;;2021160;29;20079;-65
2022/05/20 05:41:45;;;;;;;7.78;5.03;;;;;;;;;;2025299;29;20060;-64
2022/05/20 05:42:46;;;;;;;8.15;5.35;;;;;;;;;;2032060;29;20416;-65
2022/05/20 05:43:46;;;;;;;7.65;5.00;;;;;;;;;;2025336;29;20052;-64
2022/05/20 05:44:47;;;;;;;10.38;5.05;;;;;;;;;;2028084;29;20056;-64
2022/05/20 05:45:48;;;;;;;9.00;5.20;;;;;;;;;;2022854;29;20064;-65
2022/05/20 05:46:49;;;;;;;6.18;4.95;;;;;;;;;;2024774;29;20127;-64
2022/05/20 05:48:06;;;;;;;8.95;5.40;;;;;;;;;;2036127;29;20044;-64
2022/05/20 05:49:07;;;;;;;6.43;4.63;;;;;;;;;;2030035;29;20047;-64
2022/05/20 05:50:08;;;;;;;8.88;5.25;;;;;;;;;;2029704;29;20434;-65
2022/05/20 05:51:09;;;;;;;14.75;5.40;;;;;;;;;;2025270;29;20047;-65
2022/05/20 05:52:10;;;;;;;7.75;5.47;;;;;;;;;;2025169;29;20052;-64
2022/05/20 05:53:12;;;;;;;10.00;5.00;;;;;;;;;;2029357;29;20047;-65
2022/05/20 05:54:13;;;;;;;8.07;5.07;;;;;;;;;;2031988;29;20040;-65
2022/05/20 05:55:14;;;;;;;10.73;5.55;;;;;;;;;;2029864;29;20040;-66
2022/05/20 05:56:15;;;;;;;9.18;5.20;;;;;;;;;;2025312;29;20045;-65
2022/05/20 05:57:16;;;;;;;8.90;5.35;;;;;;;;;;2025666;29;20063;-64
2022/05/20 05:58:17;;;;;;;14.10;5.45;;;;;;;;;;2032464;29;20793;-64
2022/05/20 05:59:18;;;;;;;7.00;5.20;;;;;;;;;;2025962;29;20037;-64
2022/05/20 06:00:19;;;;;;;8.65;5.15;;;;;;;;;;2032213;29;20055;-65
2022/05/20 06:01:20;;;;;;;8.52;4.60;;;;;;;;;;2033249;29;20055;-65
2022/05/20 06:02:21;;;;;;;11.45;5.40;;;;;;;;;;2032350;29;20131;-67
2022/05/20 06:03:22;;;;;;;8.10;4.55;;;;;;;;;;2032562;29;20055;-64
2022/05/20 06:04:23;;;;;;;7.40;4.97;;;;;;;;;;2040028;29;20046;-66
2022/05/20 06:05:23;;;;;;;6.63;4.82;;;;;;;;;;2032717;29;20519;-65
2022/05/20 06:06:24;;;;;;;7.97;5.20;;;;;;;;;;2031596;29;20051;-64
2022/05/20 06:07:25;;;;;;;7.65;4.97;;;;;;;;;;2032257;29;20056;-65
2022/05/20 06:08:26;;;;;;;6.72;4.75;;;;;;;;;;2024887;29;20418;-65
2022/05/20 06:09:27;;;;;;;6.30;4.30;;;;;;;;;;2029180;29;20083;-66
2022/05/20 06:10:28;;;;;;;8.48;5.35;;;;;;;;;;2038363;29;20052;-65
2022/05/20 06:11:29;;;;;;;6.65;4.85;;;;;;;;;;2032754;29;20051;-65
2022/05/20 06:12:31;;;;;;;7.57;4.78;;;;;;;;;;2040166;29;20495;-65
2022/05/20 06:13:32;;;;;;;8.07;4.35;;;;;;;;;;2039851;29;20040;-64
2022/05/20 06:14:33;;;;;;;6.63;4.57;;;;;;;;;;2034654;29;20048;-65
2022/05/20 06:15:34;;;;;;;12.00;5.25;;;;;;;;;;2032670;29;20041;-64
2022/05/20 06:16:35;;;;;;;6.82;4.35;;;;;;;;;;2025135;29;20491;-65
2022/05/20 06:17:35;;;;;;;9.10;4.60;;;;;;;;;;2035680;29;20130;-66
2022/05/20 06:18:36;;;;;;;11.95;5.22;;;;;;;;;;2040687;29;20075;-66
2022/05/20 06:19:38;;;;;;;6.45;4.72;;;;;;;;;;2032404;29;20048;-65
2022/05/20 06:20:39;;;;;;;8.30;4.85;;;;;;;;;;2024406;29;20144;-65
2022/05/20 06:21:40;;;;;;;8.23;4.28;;;;;;;;;;2032361;29;20044;-65
2022/05/20 06:22:41;;;;;;;8.05;4.63;;;;;;;;;;2039937;29;20048;-65
2022/05/20 06:23:42;;;;;;;7.22;4.75;;;;;;;;;;2032512;29;20059;-65
2022/05/20 06:24:43;;;;;;;7.22;4.88;;;;;;;;;;2032260;29;20088;-65
2022/05/20 06:25:43;;;;;;;6.72;4.40;;;;;;;;;;2023645;29;20060;-67
2022/05/20 06:26:44;;;;;;;5.20;4.03;;;;;;;;;;2024480;29;20044;-65
2022/05/20 06:27:45;;;;;;;7.93;4.70;;;;;;;;;;2032190;29;20127;-65